Time;durP1;ratioP1;P1;durP2;ratioP2;P2;SDS_P1;SDS_P2;PMS_P1;PMS_P2;Temp;Humidity;BMP_temperature;BMP_pressure;BME280_temperature;BME280_humidity;BME280_pressure;Samples;Min_cycle;Max_cycle;Signal;HPM_P1;HPM_P2
2023/09/18 00:02:12;;;;;;;6.70;5.40;;;;;;;26.11;49.42;100492.13;5112155;28;20043;-64
2023/09/18 00:04:40;;;;;;;6.60;5.53;;;;;;;26.10;49.67;100491.28;5112469;28;20048;-64
2023/09/18 00:07:10;;;;;;;7.53;5.38;;;;;;;26.09;49.46;100489.59;5112356;28;20050;-65
2023/09/18 00:09:39;;;;;;;6.70;5.68;;;;;;;26.08;49.76;100492.53;5112352;28;20393;-64
2023/09/18 00:12:09;;;;;;;7.40;5.30;;;;;;;26.07;49.83;100490.81;5111285;28;20643;-66
2023/09/18 00:14:38;;;;;;;6.75;5.65;;;;;;;26.03;50.12;100482.13;5112099;28;20044;-66
2023/09/18 00:17:08;;;;;;;7.47;5.57;;;;;;;26.04;50.19;100472.03;5094091;28;20138;-65
2023/09/18 00:19:37;;;;;;;7.00;5.63;;;;;;;26.03;49.65;100473.09;5112194;28;20051;-64
2023/09/18 00:22:06;;;;;;;7.10;5.25;;;;;;;26.01;49.72;100470.53;5112102;28;20047;-65
2023/09/18 00:24:34;;;;;;;6.68;5.40;;;;;;;26.00;49.62;100468.00;5111981;28;20099;-65
2023/09/18 00:27:03;;;;;;;6.55;5.40;;;;;;;26.00;49.66;100473.47;5111947;28;20421;-65
2023/09/18 00:29:31;;;;;;;7.10;5.57;;;;;;;25.98;49.83;100473.66;5111885;28;20086;-65
2023/09/18 00:32:00;;;;;;;6.78;5.40;;;;;;;25.97;49.78;100471.97;5111981;28;20051;-65
2023/09/18 00:34:31;;;;;;;6.88;5.40;;;;;;;25.95;49.77;100472.13;5111980;28;20061;-65
2023/09/18 00:37:00;;;;;;;7.80;5.40;;;;;;;25.93;49.85;100463.28;5111909;28;20100;-65
2023/09/18 00:39:28;;;;;;;6.80;5.40;;;;;;;25.93;50.33;100473.34;5111847;28;20050;-64
2023/09/18 00:41:56;;;;;;;6.22;5.30;;;;;;;25.91;50.21;100468.09;5111638;28;20135;-65
2023/09/18 00:44:26;;;;;;;7.60;5.97;;;;;;;25.90;50.12;100468.28;5111979;28;20044;-64
2023/09/18 00:46:55;;;;;;;6.70;5.60;;;;;;;25.90;49.95;100473.75;5111845;28;20046;-64
2023/09/18 00:49:25;;;;;;;6.93;5.35;;;;;;;25.88;50.28;100475.81;5111638;28;20488;-64
2023/09/18 00:51:55;;;;;;;6.95;5.72;;;;;;;25.88;50.38;100476.66;5111703;28;20161;-64
2023/09/18 00:54:23;;;;;;;6.68;5.80;;;;;;;25.87;50.38;100463.19;5111741;28;20043;-64
2023/09/18 00:56:54;;;;;;;6.05;4.90;;;;;;;25.85;50.46;100474.28;5111870;28;20048;-66
2023/09/18 00:59:23;;;;;;;7.45;5.53;;;;;;;25.84;50.57;100469.00;5111920;28;20412;-64
2023/09/18 01:01:52;;;;;;;6.85;5.78;;;;;;;25.83;50.08;100472.78;5111660;28;20043;-64
2023/09/18 01:04:22;;;;;;;7.07;5.35;;;;;;;25.82;50.16;100466.47;5111600;28;20139;-65
2023/09/18 01:06:50;;;;;;;6.72;5.32;;;;;;;25.82;50.13;100474.66;5111411;28;20484;-65
2023/09/18 01:09:21;;;;;;;6.28;5.05;;;;;;;25.80;50.14;100471.28;5111596;28;20039;-65
2023/09/18 01:12:01;;;;;;;7.30;5.43;;;;;;;25.79;50.09;100471.47;5111349;28;20178;-65
2023/09/18 01:14:34;;;;;;;7.75;5.68;;;;;;;25.78;50.35;100469.78;5111604;28;20043;-66
2023/09/18 01:17:04;;;;;;;7.00;5.57;;;;;;;25.77;50.20;100473.50;5111462;28;20051;-64
2023/09/18 01:19:38;;;;;;;7.22;5.65;;;;;;;25.77;50.36;100476.25;5111413;28;20403;-64
2023/09/18 01:22:07;;;;;;;5.88;4.93;;;;;;;25.75;50.70;100470.13;5111508;28;20055;-64
2023/09/18 01:24:39;;;;;;;7.30;5.35;;;;;;;25.73;50.39;100467.56;5113470;28;20048;-64
2023/09/18 01:27:09;;;;;;;7.15;5.68;;;;;;;25.73;50.72;100461.28;5115248;28;20085;-64
2023/09/18 01:29:38;;;;;;;8.18;5.68;;;;;;;25.71;50.55;100466.06;5115200;28;20043;-64
2023/09/18 01:32:07;;;;;;;7.30;5.30;;;;;;;25.69;50.47;100460.78;5114757;28;20101;-64
2023/09/18 01:34:39;;;;;;;6.68;5.47;;;;;;;25.69;50.47;100456.16;5115283;28;20047;-65
2023/09/18 01:37:10;;;;;;;7.18;5.30;;;;;;;25.68;50.77;100465.38;5115056;28;20096;-66
2023/09/18 01:39:41;;;;;;;7.65;5.18;;;;;;;25.66;50.89;100464.69;5115036;28;20071;-65
2023/09/18 01:42:10;;;;;;;6.97;5.35;;;;;;;25.65;50.51;100460.28;5114894;28;20079;-65
2023/09/18 01:44:39;;;;;;;6.45;5.13;;;;;;;25.64;50.50;100457.72;5114727;28;20138;-65
2023/09/18 01:47:09;;;;;;;6.95;5.50;;;;;;;25.64;50.76;100463.19;5114971;28;20046;-65
2023/09/18 01:49:40;;;;;;;6.90;5.40;;;;;;;25.62;50.50;100463.38;5114834;28;20044;-65
2023/09/18 01:52:11;;;;;;;7.15;5.22;;;;;;;25.61;50.54;100460.84;5114488;28;20058;-65
2023/09/18 01:54:41;;;;;;;7.05;5.30;;;;;;;25.60;51.02;100462.72;5114276;28;20070;-65
2023/09/18 01:57:09;;;;;;;6.57;5.40;;;;;;;25.59;50.61;100455.56;5114487;28;20047;-65
2023/09/18 01:59:38;;;;;;;6.68;5.22;;;;;;;25.57;50.30;100463.06;5114390;28;20048;-64
2023/09/18 02:02:09;;;;;;;7.03;5.50;;;;;;;25.57;50.35;100463.06;5114431;28;20083;-64
2023/09/18 02:04:45;;;;;;;6.90;5.20;;;;;;;25.57;50.48;100462.22;5114321;28;20096;-64
2023/09/18 02:07:35;;;;;;;6.60;4.97;;;;;;;25.56;50.72;100466.00;5114298;28;20134;-65
2023/09/18 02:10:06;;;;;;;6.72;5.22;;;;;;;25.55;50.50;100458.84;5114454;28;20048;-64
2023/09/18 02:12:34;;;;;;;6.57;5.25;;;;;;;25.54;50.55;100460.72;5113922;28;20138;-64
2023/09/18 02:15:06;;;;;;;8.55;5.18;;;;;;;25.53;50.71;100461.75;5114293;28;20048;-64
2023/09/18 02:17:34;;;;;;;7.25;5.70;;;;;;;25.51;50.81;100462.97;5114258;28;20050;-64
2023/09/18 02:20:11;;;;;;;7.25;5.00;;;;;;;25.49;50.54;100454.97;5114059;28;20044;-65
2023/09/18 02:22:40;;;;;;;7.25;5.10;;;;;;;25.49;50.74;100457.72;5114299;28;20115;-65
2023/09/18 02:25:10;;;;;;;6.65;5.25;;;;;;;25.48;50.74;100461.47;5114129;28;20043;-65
2023/09/18 02:27:39;;;;;;;6.32;5.50;;;;;;;25.49;50.52;100465.06;5113872;28;20480;-65
2023/09/18 02:30:09;;;;;;;6.50;5.35;;;;;;;25.46;50.92;100458.06;5113995;28;20047;-65
2023/09/18 02:32:38;;;;;;;7.55;5.70;;;;;;;25.43;50.64;100461.16;5113759;28;20051;-65
2023/09/18 02:35:08;;;;;;;6.88;5.10;;;;;;;25.43;50.43;100455.69;5113542;28;20047;-65
2023/09/18 02:37:45;;;;;;;6.97;5.40;;;;;;;25.44;50.67;100462.00;5113889;28;20050;-65
2023/09/18 02:40:17;;;;;;;8.25;5.47;;;;;;;25.42;50.83;100459.47;5113695;28;20062;-65
2023/09/18 02:42:50;;;;;;;7.05;5.30;;;;;;;25.41;50.74;100463.22;5113773;28;20093;-65
2023/09/18 02:45:22;;;;;;;6.03;5.03;;;;;;;25.41;50.98;100465.97;5113590;28;20074;-65
2023/09/18 02:47:51;;;;;;;7.97;5.30;;;;;;;25.39;50.96;100465.31;5078810;28;20130;-63
2023/09/18 02:50:19;;;;;;;7.65;5.32;;;;;;;25.38;50.47;100469.03;5113654;28;20040;-64
2023/09/18 02:52:48;;;;;;;6.68;5.10;;;;;;;25.37;50.69;100470.06;5113393;28;20048;-64
2023/09/18 02:55:21;;;;;;;7.00;5.43;;;;;;;25.35;50.48;100462.06;5113548;28;20467;-64
2023/09/18 02:57:52;;;;;;;7.65;5.43;;;;;;;25.32;50.64;100462.44;5113595;28;20452;-65
2023/09/18 03:00:21;;;;;;;7.20;5.50;;;;;;;25.35;50.71;100474.88;5113745;28;20054;-64
2023/09/18 03:03:08;;;;;;;6.40;5.25;;;;;;;25.33;50.55;100466.03;5113401;28;20046;-65
2023/09/18 03:05:37;;;;;;;6.35;5.28;;;;;;;25.32;50.73;100469.78;5113094;28;20464;-65
2023/09/18 03:08:06;;;;;;;6.82;5.60;;;;;;;25.31;50.66;100465.38;5113224;28;20051;-65
2023/09/18 03:10:37;;;;;;;7.28;4.80;;;;;;;25.28;51.03;100463.81;5113076;28;20054;-66
2023/09/18 03:13:09;;;;;;;6.65;5.07;;;;;;;25.28;50.72;100462.97;5113073;28;20054;-64
2023/09/18 03:15:38;;;;;;;7.63;5.22;;;;;;;25.27;50.75;100462.13;5113222;28;20044;-64
2023/09/18 03:18:08;;;;;;;7.57;5.32;;;;;;;25.27;50.97;100461.28;5113007;28;20075;-64
2023/09/18 03:20:36;;;;;;;6.07;5.30;;;;;;;25.25;50.85;100460.63;5112836;28;20079;-64
2023/09/18 03:23:05;;;;;;;7.40;5.50;;;;;;;25.24;50.84;100456.19;5112730;28;20484;-65
2023/09/18 03:25:33;;;;;;;7.45;5.50;;;;;;;25.22;50.89;100456.38;5113073;28;20047;-65
2023/09/18 03:28:20;;;;;;;6.78;5.15;;;;;;;25.23;50.73;100449.03;5113045;28;20071;-64
2023/09/18 03:30:48;;;;;;;7.30;5.38;;;;;;;25.21;50.60;100451.97;5112700;28;20048;-64
2023/09/18 03:33:17;;;;;;;6.43;5.32;;;;;;;25.21;50.81;100456.56;5112478;28;20528;-64
2023/09/18 03:35:49;;;;;;;6.68;4.93;;;;;;;25.20;50.66;100461.19;5112662;28;20059;-65
2023/09/18 03:38:20;;;;;;;7.30;5.15;;;;;;;25.18;51.13;100448.72;5112801;28;20066;-64
2023/09/18 03:40:50;;;;;;;6.82;5.40;;;;;;;25.19;50.83;100442.22;5112604;28;20047;-64
2023/09/18 03:43:22;;;;;;;6.15;4.68;;;;;;;25.18;50.92;100451.47;5094944;28;20497;-64
2023/09/18 03:45:50;;;;;;;6.45;5.40;;;;;;;25.14;51.19;100440.06;5112040;28;20062;-65
2023/09/18 03:48:20;;;;;;;6.88;5.32;;;;;;;25.15;50.74;100441.75;5112338;28;20098;-65
2023/09/18 03:50:48;;;;;;;7.63;5.68;;;;;;;25.14;51.14;100444.69;5112551;28;20047;-65
2023/09/18 03:53:18;;;;;;;7.00;5.30;;;;;;;25.14;50.85;100455.59;5112395;28;20049;-65
2023/09/18 03:55:46;;;;;;;6.10;4.85;;;;;;;25.12;50.99;100453.06;5112286;28;20055;-64
2023/09/18 03:58:14;;;;;;;7.07;5.40;;;;;;;25.11;50.84;100448.63;5112221;28;20515;-65
2023/09/18 04:00:44;;;;;;;6.78;5.25;;;;;;;25.10;50.66;100455.13;5112034;28;20050;-65
2023/09/18 04:03:13;;;;;;;6.18;5.10;;;;;;;25.09;50.75;100443.34;5111888;28;20096;-65
2023/09/18 04:05:41;;;;;;;6.78;5.30;;;;;;;25.08;50.92;100438.91;5111669;28;20047;-65
2023/09/18 04:08:10;;;;;;;6.75;5.53;;;;;;;25.08;50.89;100435.31;5112085;28;20511;-64
2023/09/18 04:10:39;;;;;;;6.20;5.20;;;;;;;25.07;50.97;100433.63;5111952;28;20039;-65
2023/09/18 04:13:09;;;;;;;6.82;5.43;;;;;;;25.06;51.07;100430.06;5111825;28;20051;-64
2023/09/18 04:15:38;;;;;;;7.78;5.65;;;;;;;25.05;50.97;100436.53;5112353;28;20431;-64
2023/09/18 04:18:08;;;;;;;7.13;5.55;;;;;;;25.05;50.91;100436.53;5112102;28;20070;-64
2023/09/18 04:20:37;;;;;;;6.95;5.53;;;;;;;25.03;51.03;100432.31;5112061;28;20474;-66
2023/09/18 04:23:24;;;;;;;8.18;5.97;;;;;;;25.03;50.88;100437.75;5111983;28;20400;-65
2023/09/18 04:25:58;;;;;;;7.50;5.30;;;;;;;25.02;50.83;100431.47;5111691;28;20043;-63
2023/09/18 04:28:26;;;;;;;7.32;5.50;;;;;;;25.00;50.85;100436.22;5111946;28;20082;-63
2023/09/18 04:30:55;;;;;;;6.63;5.47;;;;;;;25.00;50.66;100433.50;5111998;28;20048;-64
2023/09/18 04:33:25;;;;;;;8.50;5.68;;;;;;;24.99;50.81;100433.66;5111803;28;20040;-63
2023/09/18 04:35:54;;;;;;;6.90;5.43;;;;;;;24.98;50.89;100430.06;5111757;28;20047;-64
2023/09/18 04:38:22;;;;;;;7.45;5.57;;;;;;;24.95;50.89;100425.00;5111030;28;20108;-65
2023/09/18 04:40:51;;;;;;;7.32;5.78;;;;;;;24.97;50.77;100428.38;5111845;28;20048;-64
2023/09/18 04:43:19;;;;;;;7.38;5.63;;;;;;;24.95;50.90;100433.16;5111554;28;20488;-63
2023/09/18 04:45:48;;;;;;;7.70;5.47;;;;;;;24.96;50.76;100437.59;5111724;28;20039;-65
2023/09/18 04:48:16;;;;;;;7.25;5.30;;;;;;;24.95;50.96;100440.50;5111698;28;20130;-64
2023/09/18 04:50:50;;;;;;;7.53;5.53;;;;;;;24.94;50.82;100433.34;5111544;28;20047;-64
2023/09/18 04:53:18;;;;;;;7.78;5.75;;;;;;;24.93;50.78;100437.97;5111596;28;20130;-65
2023/09/18 04:55:49;;;;;;;6.55;5.15;;;;;;;24.91;50.77;100429.13;5111721;28;20043;-64
2023/09/18 04:58:17;;;;;;;7.43;5.35;;;;;;;24.91;50.89;100429.13;5113326;28;20403;-64
2023/09/18 05:00:46;;;;;;;7.45;5.72;;;;;;;24.91;50.99;100434.56;5115439;28;20047;-64
2023/09/18 05:03:14;;;;;;;8.90;5.85;;;;;;;24.90;50.99;100438.34;5115497;28;20097;-64
2023/09/18 05:05:44;;;;;;;7.78;5.63;;;;;;;24.89;50.88;100430.31;5115692;28;20063;-64
2023/09/18 05:08:14;;;;;;;7.82;5.70;;;;;;;24.90;51.09;100434.72;5115449;28;20048;-63
2023/09/18 05:10:43;;;;;;;7.18;5.65;;;;;;;24.88;51.03;100434.06;5115413;28;20044;-64
2023/09/18 05:13:12;;;;;;;7.07;5.68;;;;;;;24.87;50.79;100433.22;5115370;28;20047;-64
2023/09/18 05:15:40;;;;;;;8.27;6.07;;;;;;;24.87;51.18;100432.38;5115055;28;20094;-64
2023/09/18 05:18:09;;;;;;;7.20;5.70;;;;;;;24.85;50.94;100429.84;5115426;28;20093;-64
2023/09/18 05:20:41;;;;;;;7.38;5.65;;;;;;;24.86;51.14;100431.53;5114948;28;20568;-64
2023/09/18 05:23:10;;;;;;;;;;;;;;;24.86;51.11;100427.94;5115085;28;20043;-63
2023/09/18 05:25:41;;;;;;;8.27;5.68;;;;;;;24.85;50.91;100429.84;5115184;28;19935;-64
2023/09/18 05:28:13;;;;;;;9.00;5.77;;;;;;;24.84;51.33;100425.41;5114907;28;20051;-64
2023/09/18 05:30:41;;;;;;;8.05;5.85;;;;;;;24.83;51.24;100424.56;5115251;28;20445;-64
2023/09/18 05:33:10;;;;;;;6.95;5.65;;;;;;;24.83;51.20;100431.91;5114954;28;20043;-63
2023/09/18 05:35:44;;;;;;;7.75;6.10;;;;;;;24.82;51.06;100430.19;5114710;28;20051;-64
2023/09/18 05:38:17;;;;;;;6.57;5.55;;;;;;;24.82;51.00;100441.13;5113921;28;20044;-63
2023/09/18 05:40:47;;;;;;;8.20;5.75;;;;;;;24.80;50.91;100426.78;5114013;28;20506;-65
2023/09/18 05:43:16;;;;;;;8.52;5.82;;;;;;;24.81;51.00;100433.97;5112023;28;20138;-64
2023/09/18 05:45:44;;;;;;;8.52;5.85;;;;;;;24.80;51.05;100426.78;5113974;28;20063;-64
2023/09/18 05:48:13;;;;;;;7.20;5.78;;;;;;;24.80;51.24;100418.59;5113828;28;20043;-65
2023/09/18 05:50:41;;;;;;;10.90;5.93;;;;;;;24.79;51.11;100414.19;5114259;28;20134;-64
2023/09/18 05:53:10;;;;;;;7.35;5.72;;;;;;;24.80;51.21;100413.13;5114337;28;20048;-65
2023/09/18 05:55:39;;;;;;;7.00;5.38;;;;;;;24.78;51.23;100407.03;5114428;28;20043;-66
2023/09/18 05:58:09;;;;;;;8.10;6.18;;;;;;;24.78;51.53;100407.03;5114257;28;20119;-65
2023/09/18 06:00:38;;;;;;;8.43;6.10;;;;;;;24.79;51.40;100411.44;5114486;28;20101;-65
2023/09/18 06:03:06;;;;;;;8.20;6.05;;;;;;;24.78;51.27;100412.47;5113831;28;20046;-65
2023/09/18 06:05:35;;;;;;;6.95;5.72;;;;;;;24.77;51.23;100408.06;5110466;28;20044;-64
2023/09/18 06:08:05;;;;;;;8.23;6.10;;;;;;;24.77;51.24;100408.06;5113894;28;20113;-65
2023/09/18 06:10:34;;;;;;;8.48;5.72;;;;;;;24.78;51.33;100409.75;5113091;28;20040;-66
2023/09/18 06:13:05;;;;;;;8.05;6.18;;;;;;;24.77;51.16;100411.63;5114245;28;20094;-65
2023/09/18 06:15:35;;;;;;;9.00;6.35;;;;;;;24.76;51.22;100409.09;5114223;28;20044;-65
2023/09/18 06:18:06;;;;;;;7.88;5.88;;;;;;;24.77;51.21;100413.50;5114154;28;20055;-65
2023/09/18 06:20:34;;;;;;;8.45;5.68;;;;;;;24.76;51.31;100411.81;5114073;28;20412;-66
2023/09/18 06:23:04;;;;;;;8.30;5.50;;;;;;;24.77;51.31;100413.50;5113348;28;20054;-66
2023/09/18 06:25:32;;;;;;;9.10;5.60;;;;;;;24.75;51.17;100407.41;5113419;28;20438;-66
2023/09/18 06:28:03;;;;;;;8.68;5.97;;;;;;;24.75;51.29;100405.50;5113326;28;20096;-66
2023/09/18 06:30:32;;;;;;;8.35;6.10;;;;;;;24.77;51.10;100408.06;5113479;28;20035;-66
2023/09/18 06:33:03;;;;;;;8.52;5.72;;;;;;;24.76;51.10;100398.19;5113551;28;20071;-66
2023/09/18 06:35:32;;;;;;;7.10;5.60;;;;;;;24.76;51.33;100406.38;5113079;28;20047;-66
2023/09/18 06:38:00;;;;;;;6.82;5.85;;;;;;;24.76;51.15;100403.63;5113207;28;20435;-66
2023/09/18 06:40:29;;;;;;;7.65;5.90;;;;;;;24.76;50.94;100403.63;5113828;28;20050;-66
2023/09/18 06:43:01;;;;;;;7.28;6.18;;;;;;;24.75;51.20;100401.94;5113082;28;20096;-67
2023/09/18 06:45:29;;;;;;;8.30;6.00;;;;;;;24.74;51.12;100402.97;5112837;28;20039;-66
2023/09/18 06:47:57;;;;;;;7.88;5.80;;;;;;;24.75;51.25;100408.25;5113195;28;20043;-67
2023/09/18 06:50:27;;;;;;;8.32;5.32;;;;;;;24.76;51.43;100406.38;5113078;28;20428;-66
2023/09/18 06:52:56;;;;;;;9.25;6.20;;;;;;;24.76;51.50;100403.63;5112972;28;20048;-66
2023/09/18 06:55:24;;;;;;;8.90;5.82;;;;;;;24.75;51.39;100396.47;5112687;28;20464;-66
2023/09/18 06:57:53;;;;;;;8.02;6.43;;;;;;;24.76;51.37;100398.19;5110373;28;20039;-66
2023/09/18 07:00:22;;;;;;;9.10;6.45;;;;;;;24.75;51.45;100386.41;5112645;28;20135;-66
2023/09/18 07:02:53;;;;;;;7.28;5.78;;;;;;;24.74;51.25;100387.47;5112543;28;20649;-66
2023/09/18 07:05:21;;;;;;;8.43;6.00;;;;;;;24.75;51.36;100391.03;5112759;28;20507;-66
2023/09/18 07:07:51;;;;;;;9.02;6.32;;;;;;;24.75;51.39;100396.47;5112676;28;20039;-66
2023/09/18 07:10:19;;;;;;;8.35;6.00;;;;;;;24.74;51.44;100395.63;5113056;28;20039;-67
2023/09/18 07:12:47;;;;;;;7.57;5.47;;;;;;;24.75;51.20;100396.47;5112650;28;20047;-66
2023/09/18 07:15:17;;;;;;;7.55;5.88;;;;;;;24.73;51.34;100391.22;5112915;28;20057;-65
2023/09/18 07:17:45;;;;;;;8.15;6.07;;;;;;;24.75;51.36;100388.31;5109801;28;20092;-66
2023/09/18 07:20:14;;;;;;;8.02;6.32;;;;;;;24.76;51.18;100392.72;5112553;28;20051;-65
2023/09/18 07:22:46;;;;;;;8.10;6.05;;;;;;;24.75;51.08;100394.59;5112796;28;20134;-65
2023/09/18 07:25:17;;;;;;;7.70;5.93;;;;;;;24.76;51.37;100396.31;5112752;28;20127;-67
2023/09/18 07:27:45;;;;;;;8.32;5.90;;;;;;;24.75;51.13;100401.94;5112570;28;20142;-65
2023/09/18 07:30:17;;;;;;;7.88;5.82;;;;;;;24.76;51.45;100400.91;5112656;28;20043;-66
2023/09/18 07:32:46;;;;;;;8.20;6.27;;;;;;;24.76;51.22;100387.28;5112900;28;20047;-66
2023/09/18 07:35:15;;;;;;;9.02;5.88;;;;;;;24.77;51.13;100388.97;5112533;28;20291;-66
2023/09/18 07:37:46;;;;;;;7.22;5.55;;;;;;;24.76;50.99;100392.72;5112591;28;20047;-67
2023/09/18 07:40:19;;;;;;;9.35;5.80;;;;;;;24.77;51.21;100392.53;5112294;28;20393;-65
2023/09/18 07:42:49;;;;;;;7.53;5.78;;;;;;;24.78;51.21;100385.19;5112378;28;20097;-65
2023/09/18 07:45:18;;;;;;;7.82;5.63;;;;;;;24.78;51.10;100393.38;5112456;28;20054;-65
2023/09/18 07:47:46;;;;;;;7.45;5.50;;;;;;;24.79;50.92;100397.81;5112302;28;20047;-65
2023/09/18 07:50:15;;;;;;;7.82;6.03;;;;;;;24.78;51.09;100398.84;5112226;28;20057;-65
2023/09/18 07:52:46;;;;;;;7.30;5.50;;;;;;;24.78;51.38;100391.50;5112174;28;20079;-65
2023/09/18 07:55:15;;;;;;;8.98;5.80;;;;;;;24.79;51.23;100389.63;5112288;28;20077;-65
2023/09/18 07:57:45;;;;;;;6.82;5.70;;;;;;;24.77;51.13;100378.06;5112410;28;20464;-65
2023/09/18 08:00:15;;;;;;;7.55;5.60;;;;;;;24.80;51.20;100388.59;5112199;28;20134;-65
2023/09/18 08:02:44;;;;;;;7.90;5.68;;;;;;;24.81;51.14;100373.94;5112534;28;20124;-65
2023/09/18 08:05:13;;;;;;;7.05;5.60;;;;;;;24.81;50.99;100387.59;5111957;28;20043;-65
2023/09/18 08:07:43;;;;;;;7.75;5.97;;;;;;;24.81;51.13;100387.59;5112286;28;20058;-65
2023/09/18 08:10:12;;;;;;;6.55;5.50;;;;;;;24.81;51.13;100380.25;5094118;28;20552;-66
2023/09/18 08:12:40;;;;;;;7.45;5.70;;;;;;;24.81;51.13;100382.13;5111600;28;20135;-64
2023/09/18 08:15:11;;;;;;;7.72;5.53;;;;;;;24.82;51.06;100373.75;5111917;28;20393;-65
2023/09/18 08:17:40;;;;;;;6.97;5.40;;;;;;;24.84;51.15;100373.56;5111812;28;20044;-65
2023/09/18 08:20:12;;;;;;;7.50;5.47;;;;;;;24.83;50.89;100360.97;5111992;28;20052;-66
2023/09/18 08:22:41;;;;;;;7.05;5.88;;;;;;;24.84;51.13;100363.50;5093408;28;20043;-66
2023/09/18 08:25:10;;;;;;;9.02;5.72;;;;;;;24.85;51.23;100358.91;5111398;28;20143;-65
2023/09/18 08:27:41;;;;;;;7.60;5.78;;;;;;;24.84;51.08;100347.16;5111687;28;20415;-65
2023/09/18 08:30:12;;;;;;;8.50;5.90;;;;;;;24.85;51.24;100353.44;5111503;28;20484;-65
2023/09/18 08:32:42;;;;;;;6.53;5.50;;;;;;;24.87;51.36;100351.38;5114035;28;20438;-65
2023/09/18 08:35:11;;;;;;;7.32;5.50;;;;;;;24.87;51.40;100340.47;5118650;28;20040;-65
2023/09/18 08:37:41;;;;;;;6.95;5.40;;;;;;;24.88;51.48;100342.16;5118463;28;20051;-66
2023/09/18 08:40:13;;;;;;;7.00;5.82;;;;;;;24.86;51.17;100336.03;5118583;28;20748;-65
2023/09/18 08:42:46;;;;;;;7.03;5.55;;;;;;;24.89;51.10;100337.56;5118450;28;20055;-65
2023/09/18 08:45:21;;;;;;;;;;;;;;;24.91;51.38;100343.69;5118989;28;20051;-65
2023/09/18 08:47:49;;;;;;;8.68;6.00;;;;;;;24.90;51.12;100340.13;5118573;28;20344;-65
2023/09/18 08:50:19;;;;;;;7.82;5.65;;;;;;;24.92;51.35;100343.50;5118367;28;20408;-66
2023/09/18 08:52:48;;;;;;;6.85;5.30;;;;;;;24.91;51.63;100336.34;5118179;28;20047;-66
2023/09/18 08:55:17;;;;;;;7.05;5.50;;;;;;;24.94;51.17;100346.91;5118280;28;20132;-66
2023/09/18 08:57:47;;;;;;;7.70;5.63;;;;;;;24.94;51.32;100332.41;5118150;28;20051;-66
2023/09/18 09:00:18;;;;;;;7.38;5.53;;;;;;;24.93;51.46;100328.84;5118518;28;20458;-66
2023/09/18 09:02:48;;;;;;;8.18;5.90;;;;;;;24.96;51.41;100339.38;5118297;28;20150;-66
2023/09/18 09:05:18;;;;;;;7.32;5.35;;;;;;;24.97;51.20;100341.06;5118415;28;20044;-66
2023/09/18 09:07:46;;;;;;;7.68;5.90;;;;;;;24.99;51.29;100340.88;5118147;28;20068;-66
2023/09/18 09:10:18;;;;;;;6.97;5.88;;;;;;;25.00;51.42;100340.72;5118440;28;20043;-65
2023/09/18 09:12:53;;;;;;;7.78;5.80;;;;;;;25.01;51.18;100347.88;5118151;28;20051;-65
2023/09/18 09:15:25;;;;;;;7.45;5.47;;;;;;;25.01;51.52;100342.41;5118384;28;20055;-65
2023/09/18 09:18:05;;;;;;;6.78;5.18;;;;;;;25.03;51.20;100343.09;5118043;28;20545;-66
2023/09/18 09:20:35;;;;;;;6.93;5.50;;;;;;;25.07;51.30;100346.31;5118152;28;20150;-66
2023/09/18 09:23:07;;;;;;;8.02;5.57;;;;;;;25.08;51.27;100342.53;5118182;28;20552;-66
2023/09/18 09:25:37;;;;;;;8.13;5.63;;;;;;;25.08;51.41;100342.53;5118196;28;20055;-65
2023/09/18 09:28:07;;;;;;;7.15;6.13;;;;;;;25.10;51.55;100335.88;5118247;28;20454;-66
2023/09/18 09:30:37;;;;;;;6.50;5.47;;;;;;;25.13;51.38;100328.34;5117999;28;20082;-65
2023/09/18 09:33:06;;;;;;;8.02;5.57;;;;;;;25.14;51.51;100333.63;5117904;28;20040;-66
2023/09/18 09:35:36;;;;;;;7.30;5.43;;;;;;;25.15;51.35;100331.75;5117819;28;20142;-66
2023/09/18 09:38:09;;;;;;;7.15;5.82;;;;;;;25.18;51.54;100328.63;5118095;28;20567;-67
2023/09/18 09:40:40;;;;;;;9.02;5.70;;;;;;;25.20;51.41;100329.31;5117993;28;20075;-65
2023/09/18 09:43:10;;;;;;;6.57;5.22;;;;;;;25.22;51.60;100339.00;5117948;28;20054;-66
2023/09/18 09:45:41;;;;;;;7.80;5.50;;;;;;;25.23;51.61;100339.84;5113562;28;20040;-66
2023/09/18 09:48:13;;;;;;;6.47;5.60;;;;;;;25.26;51.81;100331.28;5114969;28;20047;-66
2023/09/18 09:50:47;;;;;;;7.03;5.50;;;;;;;25.27;51.69;100320.19;5114745;28;20044;-66
2023/09/18 09:53:15;;;;;;;7.45;5.55;;;;;;;25.30;51.51;100324.44;5114484;28;20138;-67
2023/09/18 09:55:44;;;;;;;7.20;5.75;;;;;;;25.32;51.42;100314.19;5114398;28;20051;-65
2023/09/18 09:58:14;;;;;;;6.82;5.50;;;;;;;25.36;51.64;100310.03;5114656;28;20103;-66
2023/09/18 10:00:49;;;;;;;7.68;6.00;;;;;;;25.38;51.65;100305.22;5114444;28;20070;-66
2023/09/18 10:03:20;;;;;;;6.32;5.18;;;;;;;25.42;51.82;100294.78;5114603;28;20097;-66
2023/09/18 10:05:53;;;;;;;7.95;5.82;;;;;;;25.44;51.59;100299.03;5114193;28;20047;-65
2023/09/18 10:08:24;;;;;;;7.75;6.00;;;;;;;25.47;51.64;100286.88;5114319;28;20051;-66
2023/09/18 10:10:56;;;;;;;8.07;6.10;;;;;;;25.48;51.57;100277.63;5114194;28;20043;-66
2023/09/18 10:13:28;;;;;;;7.03;5.65;;;;;;;25.51;51.73;100280.00;5114362;28;20044;-66
2023/09/18 10:16:00;;;;;;;6.67;5.53;;;;;;;25.54;51.66;100277.75;5114313;28;20138;-66
2023/09/18 10:18:38;;;;;;;6.68;5.40;;;;;;;25.58;51.61;100279.06;5114016;28;20299;-65
2023/09/18 10:21:15;;;;;;;6.47;5.13;;;;;;;25.62;51.42;100274.91;5113871;28;20047;-66
2023/09/18 10:23:56;;;;;;;7.47;6.07;;;;;;;25.65;51.57;100270.97;5113987;28;20078;-66
2023/09/18 10:26:29;;;;;;;7.18;5.40;;;;;;;25.68;51.55;100271.44;5114020;28;20044;-66
2023/09/18 10:28:59;;;;;;;7.38;5.82;;;;;;;25.73;51.48;100270.03;5114059;28;20104;-66
2023/09/18 10:31:30;;;;;;;7.03;5.68;;;;;;;25.76;51.49;100267.75;5113867;28;20079;-66
2023/09/18 10:34:01;;;;;;;8.10;6.00;;;;;;;25.80;51.47;100254.59;5114203;28;20056;-66
2023/09/18 10:36:31;;;;;;;8.15;5.57;;;;;;;25.82;51.25;100247.03;5113819;28;20413;-66
2023/09/18 10:39:02;;;;;;;6.53;5.23;;;;;;;25.87;51.49;100245.44;5113945;28;20047;-67
2023/09/18 10:41:31;;;;;;;7.80;6.05;;;;;;;25.92;51.23;100244.84;5113563;28;20809;-66
2023/09/18 10:44:01;;;;;;;7.47;5.78;;;;;;;25.96;51.65;100243.41;5113497;28;20055;-66
2023/09/18 10:46:31;;;;;;;6.82;5.70;;;;;;;25.98;51.44;100241.38;5113616;28;20048;-66
2023/09/18 10:49:00;;;;;;;8.23;5.55;;;;;;;26.04;51.44;100231.53;5113613;28;20047;-66
2023/09/18 10:51:30;;;;;;;6.90;5.65;;;;;;;26.08;51.13;100227.41;5113339;28;20062;-66
2023/09/18 10:53:58;;;;;;;8.13;5.72;;;;;;;26.11;51.36;100219.63;5113351;28;20503;-66
2023/09/18 10:56:27;;;;;;;6.93;5.65;;;;;;;26.16;51.16;100222.66;5113203;28;20047;-66
2023/09/18 10:58:59;;;;;;;6.40;5.47;;;;;;;26.20;51.36;100223.09;5113174;28;20184;-66
2023/09/18 11:01:30;;;;;;;7.30;5.50;;;;;;;26.23;50.81;100222.69;5112949;28;20457;-67
2023/09/18 11:04:01;;;;;;;7.43;5.72;;;;;;;26.28;51.04;100220.25;5113248;28;20059;-66
2023/09/18 11:06:30;;;;;;;6.97;5.63;;;;;;;26.33;51.14;100222.38;5113252;28;20071;-67
2023/09/18 11:09:04;;;;;;;6.85;5.22;;;;;;;26.35;50.74;100218.44;5113033;28;20133;-66
2023/09/18 11:11:35;;;;;;;7.65;5.65;;;;;;;26.40;50.71;100212.41;5113242;28;20130;-67
2023/09/18 11:14:12;;;;;;;7.47;5.40;;;;;;;26.44;50.67;100210.94;5113123;28;20111;-67
2023/09/18 11:16:42;;;;;;;6.65;5.57;;;;;;;26.48;50.53;100209.53;5112904;28;20476;-66
2023/09/18 11:19:13;;;;;;;6.97;5.53;;;;;;;26.53;50.63;100201.56;5112780;28;20047;-67
2023/09/18 11:21:42;;;;;;;6.60;5.47;;;;;;;26.55;50.47;100198.66;5112787;28;20047;-67
2023/09/18 11:24:17;;;;;;;6.75;5.25;;;;;;;26.58;50.49;100196.38;5112672;28;20080;-66
2023/09/18 11:26:48;;;;;;;7.70;5.68;;;;;;;26.62;50.98;100189.44;5113106;28;20040;-68
2023/09/18 11:29:22;;;;;;;8.35;5.80;;;;;;;26.62;50.91;100194.91;5112669;28;20056;-67
2023/09/18 11:31:53;;;;;;;6.60;5.43;;;;;;;26.63;50.61;100191.13;5112681;28;20058;-66
2023/09/18 11:34:23;;;;;;;7.13;5.87;;;;;;;26.69;50.51;100184.88;5112556;28;20143;-67
2023/09/18 11:36:52;;;;;;;6.90;5.57;;;;;;;26.73;50.31;100190.78;5112767;28;20048;-67
2023/09/18 11:39:37;;;;;;;6.65;5.35;;;;;;;26.73;50.42;100185.31;5112136;28;20139;-67
2023/09/18 11:42:11;;;;;;;6.38;5.32;;;;;;;26.74;50.83;100176.09;5112472;28;20048;-67